Hildale, Utah
Current Conditions -  °F | °C
As of 2:55 AM on Saturday 01 Nov 2014 (Local Time) from KAZC Reporting Station
Clear Clear  
Wind Chill: 63°   Ceiling: Unl
Heat Index: 63°   Visibility: 10mi
Dew Point: 38°   Wind: 13mph
Humidity: 40%   Direction: 110°ESE
Pressure: 29.87"   Gusts: 22mph
Location:  37°N, 112.97°W
Report Text: KAZC 010855Z AUTO 11011G19KT 10SM CLR 17/03 A2987 RMK AO2 T01720034
Loading
Personal Weather Stations






























Interactive Weather Map
Tropical Storm Tracking
New forecast layout! Learn more

10-Day Weather Forecast

Advertisements
Track Severe Weather on mobile